Time;durP1;ratioP1;P1;durP2;ratioP2;P2;SDS_P1;SDS_P2;PMS_P1;PMS_P2;Temp;Humidity;BMP_temperature;BMP_pressure;BME280_temperature;BME280_humidity;BME280_pressure;Samples;Min_cycle;Max_cycle;Signal;HPM_P1;HPM_P2
2021/07/04 00:00:46;;;;;;;;;;;;;;;;;;5094836;28;19918;-82
2021/07/04 00:03:12;;;;;;;;;;;;;;;;;;5101520;28;20511;-82
2021/07/04 00:05:38;;;;;;;;;;;;;;;;;;5092580;28;19941;-84
2021/07/04 00:08:04;;;;;;;;;;;;;;;;;;5103887;28;19923;-85
2021/07/04 00:10:30;;;;;;;;;;;;;;;;;;5100026;28;19950;-84
2021/07/04 00:12:56;;;;;;;;;;;;;;;;;;5106144;28;19965;-83
2021/07/04 00:15:22;;;;;;;;;;;;;;;;;;5088004;28;20335;-84
2021/07/04 00:17:48;;;;;;;;;;;;;;;;;;5111313;28;19908;-84
2021/07/04 00:20:13;;;;;;;;;;;;;;;;;;5110719;28;19998;-83
2021/07/04 00:22:39;;;;;;;;;;;;;;;;;;5092225;28;19907;-84
2021/07/04 00:25:05;;;;;;;;;;;;;;;;;;5105829;28;19911;-83
2021/07/04 00:27:31;;;;;;;;;;;;;;;;;;5098598;28;20055;-83
2021/07/04 00:29:57;;;;;;;;;;;;;;;;;;5114663;28;20362;-84
2021/07/04 00:32:23;;;;;;;;;;;;;;;;;;5093053;28;20091;-84
2021/07/04 00:34:49;;;;;;;;;;;;;;;;;;5086383;28;19908;-84
2021/07/04 00:37:14;;;;;;;;;;;;;;;;;;5094994;28;19952;-84
2021/07/04 00:39:40;;;;;;;;;;;;;;;;;;5097475;28;19966;-83
2021/07/04 00:42:06;;;;;;;;;;;;;;;;;;5097598;28;20331;-84
2021/07/04 00:44:32;;;;;;;;;;;;;;;;;;5092148;28;20368;-83
2021/07/04 00:46:58;;;;;;;;;;;;;;;;;;5098072;28;20060;-84
2021/07/04 00:49:24;;;;;;;;;;;;;;;;;;5095647;28;20266;-84
2021/07/04 00:51:50;;;;;;;;;;;;;;;;;;5108702;28;19914;-83
2021/07/04 00:54:16;;;;;;;;;;;;;;;;;;5119956;28;20328;-84
2021/07/04 00:56:42;;;;;;;;;;;;;;;;;;5090359;27;19919;-83
2021/07/04 00:59:07;;;;;;;;;;;;;;;;;;5106599;27;20057;-83
2021/07/04 01:01:35;;;;;;;;;;;;;;;;;;5100417;27;19911;-83
2021/07/04 01:04:00;;;;;;;;;;;;;;;;;;5116309;27;20267;-84
2021/07/04 01:06:26;;;;;;;;;;;;;;;;;;5123684;27;20006;-85
2021/07/04 01:08:52;;;;;;;;;;;;;;;;;;5123225;27;19908;-82
2021/07/04 01:11:18;;;;;;;;;;;;;;;;;;5113504;28;19943;-83
2021/07/04 01:13:44;;;;;;;;;;;;;;;;;;5094923;28;20267;-83
2021/07/04 01:16:10;;;;;;;;;;;;;;;;;;5101808;28;19908;-84
2021/07/04 01:18:36;;;;;;;;;;;;;;;;;;5113895;28;20334;-83
2021/07/04 01:21:02;;;;;;;;;;;;;;;;;;5098033;28;19908;-82
2021/07/04 01:23:27;;;;;;;;;;;;;;;;;;5112244;28;19914;-83
2021/07/04 01:25:53;;;;;;;;;;;;;;;;;;5095919;28;20285;-84
2021/07/04 01:28:19;;;;;;;;;;;;;;;;;;5113796;28;19912;-84
2021/07/04 01:30:45;;;;;;;;;;;;;;;;;;5112048;27;20006;-84
2021/07/04 01:33:11;;;;;;;;;;;;;;;;;;5115398;27;19912;-83
2021/07/04 01:35:37;;;;;;;;;;;;;;;;;;5103682;27;19916;-84
2021/07/04 01:38:03;;;;;;;;;;;;;;;;;;5093032;28;19950;-83
2021/07/04 01:40:31;;;;;;;;;;;;;;;;;;5112193;28;19918;-84
2021/07/04 01:42:56;;;;;;;;;;;;;;;;;;5113871;28;20277;-83
2021/07/04 01:45:22;;;;;;;;;;;;;;;;;;5094993;28;20016;-84
2021/07/04 01:47:49;;;;;;;;;;;;;;;;;;5102233;28;20247;-83
2021/07/04 01:50:15;;;;;;;;;;;;;;;;;;5107307;28;19912;-84
2021/07/04 01:52:41;;;;;;;;;;;;;;;;;;5093429;28;19926;-83
2021/07/04 01:55:07;;;;;;;;;;;;;;;;;;5105278;27;19924;-84
2021/07/04 01:57:33;;;;;;;;;;;;;;;;;;5116961;27;19947;-84
2021/07/04 01:59:58;;;;;;;;;;;;;;;;;;5113341;28;20422;-85
2021/07/04 02:02:24;;;;;;;;;;;;;;;;;;5114853;27;20312;-83
2021/07/04 02:04:50;;;;;;;;;;;;;;;;;;5107189;28;19908;-83
2021/07/04 02:07:16;;;;;;;;;;;;;;;;;;5114595;27;20029;-84
2021/07/04 02:09:42;;;;;;;;;;;;;;;;;;5113785;28;19903;-84
2021/07/04 02:12:08;;;;;;;;;;;;;;;;;;5112717;28;19908;-82
2021/07/04 02:14:34;;;;;;;;;;;;;;;;;;5111635;28;20057;-83
2021/07/04 02:16:59;;;;;;;;;;;;;;;;;;5112846;28;19912;-82
2021/07/04 02:19:25;;;;;;;;;;;;;;;;;;5094227;28;19930;-84
2021/07/04 02:21:53;;;;;;;;;;;;;;;;;;5092562;28;19955;-82
2021/07/04 02:24:19;;;;;;;;;;;;;;;;;;5114696;27;19907;-83
2021/07/04 02:26:45;;;;;;;;;;;;;;;;;;5108607;27;20010;-82
2021/07/04 02:29:11;;;;;;;;;;;;;;;;;;5113074;27;20436;-83
2021/07/04 02:31:37;;;;;;;;;;;;;;;;;;5133882;27;19961;-84
2021/07/04 02:34:03;;;;;;;;;;;;;;;;;;5113781;27;19903;-83
2021/07/04 02:36:28;;;;;;;;;;;;;;;;;;5080385;28;19908;-84
2021/07/04 02:38:54;;;;;;;;;;;;;;;;;;5112493;28;19931;-84
2021/07/04 02:41:20;;;;;;;;;;;;;;;;;;5108343;28;19995;-84
2021/07/04 02:43:46;;;;;;;;;;;;;;;;;;5108160;28;19912;-83
2021/07/04 02:46:13;;;;;;;;;;;;;;;;;;5103145;28;20338;-82
2021/07/04 02:48:39;;;;;;;;;;;;;;;;;;5080583;28;20346;-83
2021/07/04 02:51:05;;;;;;;;;;;;;;;;;;5108043;28;19907;-83
2021/07/04 02:53:31;;;;;;;;;;;;;;;;;;5114938;27;19911;-83
2021/07/04 02:55:57;;;;;;;;;;;;;;;;;;5100401;27;21403;-84
2021/07/04 02:58:23;;;;;;;;;;;;;;;;;;5113701;27;19915;-84
2021/07/04 03:00:49;;;;;;;;;;;;;;;;;;5112065;28;19907;-84
2021/07/04 03:03:15;;;;;;;;;;;;;;;;;;5110797;28;19950;-85
2021/07/04 03:05:40;;;;;;;;;;;;;;;;;;5090030;28;19988;-83
2021/07/04 03:08:06;;;;;;;;;;;;;;;;;;5108895;28;20327;-84
2021/07/04 03:10:32;;;;;;;;;;;;;;;;;;5085949;28;19912;-83
2021/07/04 03:13:01;;;;;;;;;;;;;;;;;;5111568;28;20353;-84
2021/07/04 03:15:27;;;;;;;;;;;;;;;;;;5108036;28;19916;-83
2021/07/04 03:17:53;;;;;;;;;;;;;;;;;;5101945;28;19923;-82
2021/07/04 03:20:19;;;;;;;;;;;;;;;;;;5083895;28;19908;-83
2021/07/04 03:22:44;;;;;;;;;;;;;;;;;;5090791;28;19908;-83
2021/07/04 03:25:10;;;;;;;;;;;;;;;;;;5111115;28;20358;-84
2021/07/04 03:27:36;;;;;;;;;;;;;;;;;;5106391;28;19920;-83
2021/07/04 03:30:02;;;;;;;;;;;;;;;;;;5086991;27;20417;-83
2021/07/04 03:32:28;;;;;;;;;;;;;;;;;;5129371;27;20006;-84
2021/07/04 03:34:54;;;;;;;;;;;;;;;;;;5093148;28;19904;-83
2021/07/04 03:37:20;;;;;;;;;;;;;;;;;;5110211;28;19907;-83
2021/07/04 03:39:46;;;;;;;;;;;;;;;;;;5112530;27;19908;-84
2021/07/04 03:42:12;;;;;;;;;;;;;;;;;;5111892;28;19908;-82
2021/07/04 03:44:39;;;;;;;;;;;;;;;;;;5107656;28;19943;-82
2021/07/04 03:47:04;;;;;;;;;;;;;;;;;;5078501;28;20385;-83
2021/07/04 03:49:30;;;;;;;;;;;;;;;;;;5098767;28;19912;-83
2021/07/04 03:51:56;;;;;;;;;;;;;;;;;;5111291;28;19907;-84
2021/07/04 03:54:22;;;;;;;;;;;;;;;;;;5110502;28;19911;-83
2021/07/04 03:56:48;;;;;;;;;;;;;;;;;;5110990;28;20259;-84
2021/07/04 03:59:14;;;;;;;;;;;;;;;;;;5110332;27;19951;-83
2021/07/04 04:01:41;;;;;;;;;;;;;;;;;;5087204;28;20030;-84
2021/07/04 04:04:07;;;;;;;;;;;;;;;;;;5104002;27;20005;-83
2021/07/04 04:06:32;;;;;;;;;;;;;;;;;;5091368;28;19943;-83
2021/07/04 04:08:58;;;;;;;;;;;;;;;;;;5110019;28;19918;-83
2021/07/04 04:11:24;;;;;;;;;;;;;;;;;;5111448;28;19904;-83
2021/07/04 04:13:50;;;;;;;;;;;;;;;;;;5110986;28;19903;-83
2021/07/04 04:16:16;;;;;;;;;;;;;;;;;;5096351;28;20775;-84
2021/07/04 04:18:43;;;;;;;;;;;;;;;;;;5090763;28;19999;-83
2021/07/04 04:21:09;;;;;;;;;;;;;;;;;;5099997;28;19914;-83
2021/07/04 04:23:35;;;;;;;;;;;;;;;;;;5090450;28;19904;-85
2021/07/04 04:26:01;;;;;;;;;;;;;;;;;;5116529;28;20189;-83
2021/07/04 04:28:27;;;;;;;;;;;;;;;;;;5094620;28;19923;-83
2021/07/04 04:30:53;;;;;;;;;;;;;;;;;;5110022;28;19907;-83
2021/07/04 04:33:19;;;;;;;;;;;;;;;;;;5100239;28;20018;-83
2021/07/04 04:35:45;;;;;;;;;;;;;;;;;;5103808;28;20266;-83
2021/07/04 04:38:11;;;;;;;;;;;;;;;;;;5117559;28;19915;-84
2021/07/04 04:40:37;;;;;;;;;;;;;;;;;;5097039;28;19923;-83
2021/07/04 04:43:02;;;;;;;;;;;;;;;;;;5102950;28;19911;-83
2021/07/04 04:45:28;;;;;;;;;;;;;;;;;;5102735;28;20249;-84
2021/07/04 04:47:54;;;;;;;;;;;;;;;;;;5074776;28;19923;-82
2021/07/04 04:50:20;;;;;;;;;;;;;;;;;;5096384;28;19911;-82
2021/07/04 04:52:46;;;;;;;;;;;;;;;;;;5110096;28;19907;-83
2021/07/04 04:55:12;;;;;;;;;;;;;;;;;;5110051;28;19912;-82
2021/07/04 04:57:38;;;;;;;;;;;;;;;;;;5099992;28;20389;-83
2021/07/04 05:00:04;;;;;;;;;;;;;;;;;;5092840;28;19916;-83
2021/07/04 05:02:30;;;;;;;;;;;;;;;;;;5109496;28;19907;-84
2021/07/04 05:04:56;;;;;;;;;;;;;;;;;;5095287;28;19907;-83
2021/07/04 05:07:22;;;;;;;;;;;;;;;;;;5101647;28;19919;-84
2021/07/04 05:09:48;;;;;;;;;;;;;;;;;;5110057;28;20001;-83
2021/07/04 05:12:13;;;;;;;;;;;;;;;;;;5102011;28;20342;-82
2021/07/04 05:14:39;;;;;;;;;;;;;;;;;;5094650;28;19943;-83
2021/07/04 05:17:05;;;;;;;;;;;;;;;;;;5103853;28;19911;-83
2021/07/04 05:19:31;;;;;;;;;;;;;;;;;;5109048;28;19911;-82
2021/07/04 05:21:57;;;;;;;;;;;;;;;;;;5110638;28;19936;-83
2021/07/04 05:24:23;;;;;;;;;;;;;;;;;;5108896;28;19908;-83
2021/07/04 05:26:49;;;;;;;;;;;;;;;;;;5089734;28;20006;-83
2021/07/04 05:29:15;;;;;;;;;;;;;;;;;;5110123;28;19911;-83
2021/07/04 05:31:41;;;;;;;;;;;;;;;;;;5111414;28;19987;-82
2021/07/04 05:34:07;;;;;;;;;;;;;;;;;;5112864;27;20131;-82
2021/07/04 05:36:32;;;;;;;;;;;;;;;;;;5112091;28;19919;-82
2021/07/04 05:38:59;;;;;;;;;;;;;;;;;;5115716;28;19916;-83
2021/07/04 05:41:24;;;;;;;;;;;;;;;;;;5094253;28;19904;-83
2021/07/04 05:43:50;;;;;;;;;;;;;;;;;;5096314;28;19914;-83
2021/07/04 05:46:16;;;;;;;;;;;;;;;;;;5089447;28;20345;-85
2021/07/04 05:48:42;;;;;;;;;;;;;;;;;;5095470;28;19916;-85
2021/07/04 05:51:08;;;;;;;;;;;;;;;;;;5113890;28;19969;-84
2021/07/04 05:53:34;;;;;;;;;;;;;;;;;;5113272;28;19949;-84
2021/07/04 05:56:00;;;;;;;;;;;;;;;;;;5101846;27;19916;-84
2021/07/04 05:58:26;;;;;;;;;;;;;;;;;;5094943;28;20422;-83
2021/07/04 06:00:52;;;;;;;;;;;;;;;;;;5106877;27;19957;-83
2021/07/04 06:03:17;;;;;;;;;;;;;;;;;;5093552;28;20322;-84
2021/07/04 06:05:43;;;;;;;;;;;;;;;;;;5100003;28;19962;-84
2021/07/04 06:08:09;;;;;;;;;;;;;;;;;;5120122;27;19919;-83
2021/07/04 06:10:35;;;;;;;;;;;;;;;;;;5102571;28;19930;-85
2021/07/04 06:13:01;;;;;;;;;;;;;;;;;;5104731;28;19958;-84
2021/07/04 06:15:27;;;;;;;;;;;;;;;;;;5101848;28;19965;-83
2021/07/04 06:17:53;;;;;;;;;;;;;;;;;;5105674;28;19903;-83
2021/07/04 06:20:20;;;;;;;;;;;;;;;;;;5112882;28;19984;-83
2021/07/04 06:22:46;;;;;;;;;;;;;;;;;;5112880;28;19914;-84
2021/07/04 06:25:12;;;;;;;;;;;;;;;;;;5088795;27;20285;-82
2021/07/04 06:27:39;;;;;;;;;;;;;;;;;;5111088;28;19912;-84
2021/07/04 06:30:05;;;;;;;;;;;;;;;;;;5087007;28;19907;-83
2021/07/04 06:32:31;;;;;;;;;;;;;;;;;;5113158;27;19918;-85
2021/07/04 06:34:57;;;;;;;;;;;;;;;;;;5112114;27;19935;-86
2021/07/04 06:37:22;;;;;;;;;;;;;;;;;;5098908;28;19922;-87
2021/07/04 06:39:48;;;;;;;;;;;;;;;;;;5112892;28;20239;-83
2021/07/04 06:42:14;;;;;;;;;;;;;;;;;;5111465;28;19907;-80
2021/07/04 06:44:40;;;;;;;;;;;;;;;;;;5107118;28;19904;-79
2021/07/04 06:47:06;;;;;;;;;;;;;;;;;;5112527;27;19981;-79
2021/07/04 06:49:32;;;;;;;;;;;;;;;;;;5111525;28;20008;-81
2021/07/04 06:51:58;;;;;;;;;;;;;;;;;;5111182;28;20278;-80
2021/07/04 06:54:24;;;;;;;;;;;;;;;;;;5109991;28;19908;-81
2021/07/04 06:56:49;;;;;;;;;;;;;;;;;;5127924;27;20485;-81
2021/07/04 06:59:15;;;;;;;;;;;;;;;;;;5120600;27;19916;-80
2021/07/04 07:01:41;;;;;;;;;;;;;;;;;;5100968;28;19934;-81
2021/07/04 07:04:07;;;;;;;;;;;;;;;;;;5092010;28;19961;-81
2021/07/04 07:06:33;;;;;;;;;;;;;;;;;;5091997;28;19905;-81
2021/07/04 07:08:59;;;;;;;;;;;;;;;;;;5074593;28;20020;-80
2021/07/04 07:11:25;;;;;;;;;;;;;;;;;;5092031;28;19910;-81
2021/07/04 07:13:51;;;;;;;;;;;;;;;;;;5091465;28;20383;-80
2021/07/04 07:16:17;;;;;;;;;;;;;;;;;;5103541;27;20030;-77
2021/07/04 07:18:42;;;;;;;;;;;;;;;;;;5111246;27;20350;-79
2021/07/04 07:21:08;;;;;;;;;;;;;;;;;;5108470;28;19932;-78
2021/07/04 07:23:34;;;;;;;;;;;;;;;;;;5112584;27;19908;-78
2021/07/04 07:26:01;;;;;;;;;;;;;;;;;;5113423;27;19912;-78
2021/07/04 07:28:27;;;;;;;;;;;;;;;;;;5110152;28;19959;-81
2021/07/04 07:30:53;;;;;;;;;;;;;;;;;;5095698;28;20066;-78
2021/07/04 07:33:19;;;;;;;;;;;;;;;;;;5112098;28;19947;-77
2021/07/04 07:35:45;;;;;;;;;;;;;;;;;;5111733;28;20263;-78
2021/07/04 07:38:11;;;;;;;;;;;;;;;;;;5094126;28;19915;-76
2021/07/04 07:40:37;;;;;;;;;;;;;;;;;;5093731;28;20356;-80
2021/07/04 07:43:03;;;;;;;;;;;;;;;;;;5111087;28;20243;-79
2021/07/04 07:45:29;;;;;;;;;;;;;;;;;;5116790;27;19907;-81
2021/07/04 07:47:55;;;;;;;;;;;;;;;;;;5123745;27;20176;-79
2021/07/04 07:50:20;;;;;;;;;;;;;;;;;;5103217;28;19957;-81
2021/07/04 07:52:46;;;;;;;;;;;;;;;;;;5111843;28;19972;-80
2021/07/04 07:55:12;;;;;;;;;;;;;;;;;;5112554;28;20285;-80
2021/07/04 07:57:38;;;;;;;;;;;;;;;;;;5113401;28;20409;-79
2021/07/04 08:00:04;;;;;;;;;;;;;;;;;;5094530;28;19911;-80
2021/07/04 08:02:30;;;;;;;;;;;;;;;;;;5092376;28;20256;-82
2021/07/04 08:04:58;;;;;;;;;;;;;;;;;;5127206;27;19972;-80
2021/07/04 08:07:24;;;;;;;;;;;;;;;;;;5124917;27;19966;-81
2021/07/04 08:09:49;;;;;;;;;;;;;;;;;;5092622;28;19954;-81
2021/07/04 08:12:16;;;;;;;;;;;;;;;;;;5090330;28;19912;-81
2021/07/04 08:14:42;;;;;;;;;;;;;;;;;;5089913;28;20266;-81
2021/07/04 08:17:08;;;;;;;;;;;;;;;;;;5103145;27;19908;-80
2021/07/04 08:19:34;;;;;;;;;;;;;;;;;;5123502;27;19950;-80
2021/07/04 08:22:00;;;;;;;;;;;;;;;;;;5111888;28;20018;-81
2021/07/04 08:24:26;;;;;;;;;;;;;;;;;;5112545;28;19929;-80
2021/07/04 08:26:54;;;;;;;;;;;;;;;;;;5112454;28;20021;-79
2021/07/04 08:29:19;;;;;;;;;;;;;;;;;;5111368;28;20376;-80
2021/07/04 08:31:45;;;;;;;;;;;;;;;;;;5093554;28;19908;-79
2021/07/04 08:34:11;;;;;;;;;;;;;;;;;;5082055;28;20295;-79
2021/07/04 08:36:37;;;;;;;;;;;;;;;;;;5080886;28;19916;-81
2021/07/04 08:39:03;;;;;;;;;;;;;;;;;;5111315;28;19903;-78
2021/07/04 08:41:29;;;;;;;;;;;;;;;;;;5111563;28;20269;-81
2021/07/04 08:43:55;;;;;;;;;;;;;;;;;;5092161;28;19910;-79
2021/07/04 08:46:21;;;;;;;;;;;;;;;;;;5110088;28;19908;-81
2021/07/04 08:48:47;;;;;;;;;;;;;;;;;;5110781;28;19923;-81
2021/07/04 08:51:13;;;;;;;;;;;;;;;;;;5110589;28;19911;-80
2021/07/04 08:53:39;;;;;;;;;;;;;;;;;;5092315;28;19911;-82
2021/07/04 08:56:04;;;;;;;;;;;;;;;;;;5110323;28;19903;-82
2021/07/04 08:58:30;;;;;;;;;;;;;;;;;;5110880;28;19915;-83
2021/07/04 09:00:56;;;;;;;;;;;;;;;;;;5110509;28;19904;-81
2021/07/04 09:03:22;;;;;;;;;;;;;;;;;;5120817;28;20369;-82
2021/07/04 09:05:48;;;;;;;;;;;;;;;;;;5114160;28;19916;-80
2021/07/04 09:08:14;;;;;;;;;;;;;;;;;;5103871;27;19915;-80
2021/07/04 09:10:40;;;;;;;;;;;;;;;;;;5127048;27;20357;-78
2021/07/04 09:13:07;;;;;;;;;;;;;;;;;;5108193;27;19908;-79
2021/07/04 09:15:33;;;;;;;;;;;;;;;;;;5094496;28;19907;-79
2021/07/04 09:17:59;;;;;;;;;;;;;;;;;;5113040;28;20425;-84
2021/07/04 09:20:25;;;;;;;;;;;;;;;;;;5095861;28;19960;-82
2021/07/04 09:22:51;;;;;;;;;;;;;;;;;;5119021;28;19904;-82
2021/07/04 09:25:17;;;;;;;;;;;;;;;;;;5098058;28;19903;-84
2021/07/04 09:27:43;;;;;;;;;;;;;;;;;;5110598;28;19920;-85
2021/07/04 09:30:09;;;;;;;;;;;;;;;;;;5114680;28;19914;-84
2021/07/04 09:32:35;;;;;;;;;;;;;;;;;;5114166;28;19907;-84
2021/07/04 09:35:01;;;;;;;;;;;;;;;;;;5112983;28;19904;-86
2021/07/04 09:37:27;;;;;;;;;;;;;;;;;;5097471;28;19951;-85
2021/07/04 09:39:53;;;;;;;;;;;;;;;;;;5112778;27;19908;-85
2021/07/04 09:42:18;;;;;;;;;;;;;;;;;;5113657;28;19908;-86
2021/07/04 09:44:44;;;;;;;;;;;;;;;;;;5114196;28;20364;-86
2021/07/04 09:47:10;;;;;;;;;;;;;;;;;;5095402;28;19992;-85
2021/07/04 09:49:36;;;;;;;;;;;;;;;;;;5103792;28;20067;-84
2021/07/04 09:52:02;;;;;;;;;;;;;;;;;;5113864;28;19908;-85
2021/07/04 09:54:28;;;;;;;;;;;;;;;;;;5106129;28;20364;-85
2021/07/04 09:56:54;;;;;;;;;;;;;;;;;;5109787;27;19915;-85
2021/07/04 09:59:19;;;;;;;;;;;;;;;;;;5112357;28;19920;-85
2021/07/04 10:01:46;;;;;;;;;;;;;;;;;;5097391;28;20273;-85
2021/07/04 10:04:12;;;;;;;;;;;;;;;;;;5095019;28;20284;-84
2021/07/04 10:06:38;;;;;;;;;;;;;;;;;;5117862;27;20373;-85
2021/07/04 10:09:04;;;;;;;;;;;;;;;;;;5114209;28;20242;-86
2021/07/04 10:11:30;;;;;;;;;;;;;;;;;;5104195;28;19912;-84
2021/07/04 10:13:55;;;;;;;;;;;;;;;;;;5106929;28;19910;-84
2021/07/04 10:16:21;;;;;;;;;;;;;;;;;;5113612;28;19968;-84
2021/07/04 10:18:48;;;;;;;;;;;;;;;;;;5113251;28;19908;-84
2021/07/04 10:21:14;;;;;;;;;;;;;;;;;;5107398;28;19911;-83
2021/07/04 10:23:40;;;;;;;;;;;;;;;;;;5110507;28;19994;-84
2021/07/04 10:26:06;;;;;;;;;;;;;;;;;;5112101;28;19904;-84
2021/07/04 10:28:32;;;;;;;;;;;;;;;;;;5093233;28;19959;-83
2021/07/04 10:30:58;;;;;;;;;;;;;;;;;;5111445;28;19927;-83
2021/07/04 10:33:24;;;;;;;;;;;;;;;;;;5110931;28;19923;-84
2021/07/04 10:35:49;;;;;;;;;;;;;;;;;;5112030;28;19987;-84
2021/07/04 10:38:15;;;;;;;;;;;;;;;;;;5112258;28;19965;-84
2021/07/04 10:40:41;;;;;;;;;;;;;;;;;;5111646;28;19908;-85
2021/07/04 10:43:07;;;;;;;;;;;;;;;;;;5109957;28;19914;-86
2021/07/04 10:45:33;;;;;;;;;;;;;;;;;;5109588;28;20373;-85
2021/07/04 10:47:59;;;;;;;;;;;;;;;;;;5108849;28;20090;-86
2021/07/04 10:50:25;;;;;;;;;;;;;;;;;;5092369;28;20519;-86
2021/07/04 10:52:53;;;;;;;;;;;;;;;;;;5095139;28;19908;-85
2021/07/04 10:55:19;;;;;;;;;;;;;;;;;;5111970;27;19908;-86
2021/07/04 10:57:45;;;;;;;;;;;;;;;;;;5112252;28;19923;-87
2021/07/04 11:00:10;;;;;;;;;;;;;;;;;;5113482;28;20431;-87
2021/07/04 11:02:36;;;;;;;;;;;;;;;;;;5111426;27;19907;-86
2021/07/04 11:05:02;;;;;;;;;;;;;;;;;;5110994;28;20262;-87
2021/07/04 11:07:28;;;;;;;;;;;;;;;;;;5094770;28;19919;-87
2021/07/04 11:09:55;;;;;;;;;;;;;;;;;;5112297;28;20325;-85
2021/07/04 11:12:21;;;;;;;;;;;;;;;;;;5112924;28;19943;-86
2021/07/04 11:14:47;;;;;;;;;;;;;;;;;;5112913;28;19947;-86
2021/07/04 11:17:13;;;;;;;;;;;;;;;;;;5112829;28;19907;-86
2021/07/04 11:19:42;;;;;;;;;;;;;;;;;;5111556;28;19907;-85
2021/07/04 11:22:08;;;;;;;;;;;;;;;;;;5115944;28;20460;-87
2021/07/04 11:24:34;;;;;;;;;;;;;;;;;;5111677;28;20043;-85
2021/07/04 11:27:00;;;;;;;;;;;;;;;;;;5094465;28;19911;-83
2021/07/04 11:29:26;;;;;;;;;;;;;;;;;;5115304;28;20011;-86
2021/07/04 11:31:52;;;;;;;;;;;;;;;;;;5112681;27;19908;-83
2021/07/04 11:34:18;;;;;;;;;;;;;;;;;;5112487;28;20454;-84
2021/07/04 11:36:44;;;;;;;;;;;;;;;;;;5112052;28;19949;-83
2021/07/04 11:39:09;;;;;;;;;;;;;;;;;;5112435;28;20349;-84
2021/07/04 11:41:35;;;;;;;;;;;;;;;;;;5094747;28;19999;-85
2021/07/04 11:44:03;;;;;;;;;;;;;;;;;;5112910;28;19910;-86
2021/07/04 11:46:29;;;;;;;;;;;;;;;;;;5112000;28;19945;-85
2021/07/04 11:48:55;;;;;;;;;;;;;;;;;;5113898;28;20315;-85
2021/07/04 11:51:20;;;;;;;;;;;;;;;;;;5095698;28;19948;-82
2021/07/04 11:53:46;;;;;;;;;;;;;;;;;;5113262;28;19953;-82
2021/07/04 11:56:13;;;;;;;;;;;;;;;;;;5113127;28;19903;-80
2021/07/04 11:58:39;;;;;;;;;;;;;;;;;;5113445;28;19915;-82
2021/07/04 12:01:05;;;;;;;;;;;;;;;;;;5117169;27;19918;-79
2021/07/04 12:03:31;;;;;;;;;;;;;;;;;;5099404;28;19930;-79
2021/07/04 12:05:57;;;;;;;;;;;;;;;;;;5112477;28;19946;-80
2021/07/04 12:08:22;;;;;;;;;;;;;;;;;;5111322;28;20366;-81
2021/07/04 12:10:48;;;;;;;;;;;;;;;;;;5112243;28;19912;-81
2021/07/04 12:13:14;;;;;;;;;;;;;;;;;;5111877;28;20034;-81
2021/07/04 12:15:40;;;;;;;;;;;;;;;;;;5112154;28;19938;-81
2021/07/04 12:18:06;;;;;;;;;;;;;;;;;;5111158;28;20452;-81
2021/07/04 12:20:33;;;;;;;;;;;;;;;;;;5111510;28;20383;-82
2021/07/04 12:22:59;;;;;;;;;;;;;;;;;;5112451;28;19912;-79
2021/07/04 12:25:26;;;;;;;;;;;;;;;;;;5112559;28;19977;-81
2021/07/04 12:27:52;;;;;;;;;;;;;;;;;;5112020;28;19911;-81
2021/07/04 12:30:18;;;;;;;;;;;;;;;;;;5112634;28;19931;-83
2021/07/04 12:32:44;;;;;;;;;;;;;;;;;;5114429;28;19942;-83
2021/07/04 12:35:09;;;;;;;;;;;;;;;;;;5114122;28;19903;-83
2021/07/04 12:37:35;;;;;;;;;;;;;;;;;;5133271;28;19904;-83
2021/07/04 12:40:01;;;;;;;;;;;;;;;;;;5132389;28;19904;-83
2021/07/04 12:42:27;;;;;;;;;;;;;;;;;;5136035;27;19998;-83
2021/07/04 12:44:53;;;;;;;;;;;;;;;;;;5136794;27;20301;-81
2021/07/04 12:47:21;;;;;;;;;;;;;;;;;;5135376;27;19915;-82
2021/07/04 12:49:47;;;;;;;;;;;;;;;;;;5136956;27;20059;-83
2021/07/04 12:52:12;;;;;;;;;;;;;;;;;;5140372;27;19955;-84
2021/07/04 12:54:38;;;;;;;;;;;;;;;;;;5138724;27;19911;-82
2021/07/04 12:57:07;;;;;;;;;;;;;;;;;;5138210;27;19938;-84
2021/07/04 12:59:33;;;;;;;;;;;;;;;;;;5138861;27;19903;-84
2021/07/04 13:01:59;;;;;;;;;;;;;;;;;;5100879;28;19908;-83
2021/07/04 13:04:25;;;;;;;;;;;;;;;;;;5116555;27;19904;-85
2021/07/04 13:06:51;;;;;;;;;;;;;;;;;;5116103;28;19922;-84
2021/07/04 13:09:17;;;;;;;;;;;;;;;;;;5116138;28;19907;-83
2021/07/04 13:11:42;;;;;;;;;;;;;;;;;;5096452;28;19929;-82
2021/07/04 13:14:08;;;;;;;;;;;;;;;;;;5088755;28;19919;-83
2021/07/04 13:16:34;;;;;;;;;;;;;;;;;;5096325;28;19943;-83
2021/07/04 13:19:00;;;;;;;;;;;;;;;;;;5109953;28;20405;-82
2021/07/04 13:21:26;;;;;;;;;;;;;;;;;;5114737;28;19908;-84
2021/07/04 13:23:52;;;;;;;;;;;;;;;;;;5113432;28;20364;-84
2021/07/04 13:26:18;;;;;;;;;;;;;;;;;;5115160;28;19998;-85
2021/07/04 13:28:44;;;;;;;;;;;;;;;;;;5114752;28;19919;-83
2021/07/04 13:31:09;;;;;;;;;;;;;;;;;;5094487;28;19955;-86
2021/07/04 13:33:35;;;;;;;;;;;;;;;;;;5125109;27;19912;-82
2021/07/04 13:36:01;;;;;;;;;;;;;;;;;;5114133;28;19907;-81
2021/07/04 13:38:27;;;;;;;;;;;;;;;;;;5114619;28;19914;-81
2021/07/04 13:40:53;;;;;;;;;;;;;;;;;;5099897;28;20235;-81
2021/07/04 13:43:19;;;;;;;;;;;;;;;;;;5093718;28;19912;-79
2021/07/04 13:45:46;;;;;;;;;;;;;;;;;;5118027;28;19995;-81
2021/07/04 13:48:12;;;;;;;;;;;;;;;;;;5115442;28;19926;-84
2021/07/04 13:50:38;;;;;;;;;;;;;;;;;;5112780;28;19908;-84
2021/07/04 13:53:04;;;;;;;;;;;;;;;;;;5114067;28;20323;-83
2021/07/04 13:55:29;;;;;;;;;;;;;;;;;;5113822;28;19908;-86
2021/07/04 13:57:55;;;;;;;;;;;;;;;;;;5096972;28;20385;-84
2021/07/04 14:00:22;;;;;;;;;;;;;;;;;;5096782;28;19980;-84
2021/07/04 14:02:48;;;;;;;;;;;;;;;;;;5125259;27;19911;-84
2021/07/04 14:05:14;;;;;;;;;;;;;;;;;;5133294;27;19903;-86
2021/07/04 14:07:40;;;;;;;;;;;;;;;;;;5116542;27;19911;-87
2021/07/04 14:10:06;;;;;;;;;;;;;;;;;;5134854;27;19903;-85
2021/07/04 14:12:32;;;;;;;;;;;;;;;;;;5115990;27;19907;-85
2021/07/04 14:14:58;;;;;;;;;;;;;;;;;;5121001;27;19907;-83
2021/07/04 14:17:26;;;;;;;;;;;;;;;;;;5113473;28;19915;-84
2021/07/04 14:19:53;;;;;;;;;;;;;;;;;;5113370;28;19964;-83
2021/07/04 14:22:19;;;;;;;;;;;;;;;;;;5113922;28;19907;-84
2021/07/04 14:24:45;;;;;;;;;;;;;;;;;;5113429;28;19926;-84
2021/07/04 14:27:11;;;;;;;;;;;;;;;;;;5112805;28;19913;-83
2021/07/04 14:29:37;;;;;;;;;;;;;;;;;;5123837;27;19952;-85
2021/07/04 14:32:02;;;;;;;;;;;;;;;;;;5113192;28;19907;-82
2021/07/04 14:34:28;;;;;;;;;;;;;;;;;;5114266;28;19911;-85
2021/07/04 14:36:54;;;;;;;;;;;;;;;;;;5112663;28;20737;-83
2021/07/04 14:39:20;;;;;;;;;;;;;;;;;;5113610;28;19903;-83
2021/07/04 14:41:46;;;;;;;;;;;;;;;;;;5095054;28;20330;-83
2021/07/04 14:44:12;;;;;;;;;;;;;;;;;;5112981;28;19914;-82
2021/07/04 14:46:38;;;;;;;;;;;;;;;;;;5118055;28;20265;-83
2021/07/04 14:49:04;;;;;;;;;;;;;;;;;;5096139;28;19968;-83
2021/07/04 14:51:30;;;;;;;;;;;;;;;;;;5115279;28;19911;-84
2021/07/04 14:53:56;;;;;;;;;;;;;;;;;;5113148;28;19907;-82
2021/07/04 14:56:23;;;;;;;;;;;;;;;;;;5113790;28;20231;-82
2021/07/04 14:58:49;;;;;;;;;;;;;;;;;;5114460;27;19920;-81
2021/07/04 15:01:15;;;;;;;;;;;;;;;;;;5112550;28;19914;-81
2021/07/04 15:03:40;;;;;;;;;;;;;;;;;;5112628;28;20316;-82
2021/07/04 15:06:06;;;;;;;;;;;;;;;;;;5112997;28;20361;-83
2021/07/04 15:08:32;;;;;;;;;;;;;;;;;;5129627;27;19915;-82
2021/07/04 15:10:58;;;;;;;;;;;;;;;;;;5132176;27;19961;-84
2021/07/04 15:13:24;;;;;;;;;;;;;;;;;;5110394;28;19995;-83
2021/07/04 15:15:50;;;;;;;;;;;;;;;;;;5113740;28;19908;-82
2021/07/04 15:18:16;;;;;;;;;;;;;;;;;;5112587;28;19904;-84
2021/07/04 15:20:42;;;;;;;;;;;;;;;;;;5112518;28;19908;-83
2021/07/04 15:23:07;;;;;;;;;;;;;;;;;;5114852;28;19899;-83
2021/07/04 15:25:33;;;;;;;;;;;;;;;;;;5095711;28;20331;-85
2021/07/04 15:27:59;;;;;;;;;;;;;;;;;;5115671;28;19947;-84
2021/07/04 15:30:25;;;;;;;;;;;;;;;;;;5116198;27;19908;-83
2021/07/04 15:32:51;;;;;;;;;;;;;;;;;;5098959;28;19955;-84
2021/07/04 15:35:17;;;;;;;;;;;;;;;;;;5106125;28;20358;-80
2021/07/04 15:37:43;;;;;;;;;;;;;;;;;;5095734;28;19908;-89
2021/07/04 15:40:09;;;;;;;;;;;;;;;;;;5108860;28;19911;-89
2021/07/04 15:42:35;;;;;;;;;;;;;;;;;;5113316;28;20071;-87
2021/07/04 15:45:01;;;;;;;;;;;;;;;;;;5114702;28;19919;-86
2021/07/04 15:47:27;;;;;;;;;;;;;;;;;;5097201;28;19927;-86
2021/07/04 15:49:53;;;;;;;;;;;;;;;;;;5113052;28;20364;-86
2021/07/04 15:52:19;;;;;;;;;;;;;;;;;;5115365;28;19943;-86
2021/07/04 15:54:45;;;;;;;;;;;;;;;;;;5113534;28;19908;-86
2021/07/04 15:57:13;;;;;;;;;;;;;;;;;;5115521;28;19948;-86
2021/07/04 15:59:39;;;;;;;;;;;;;;;;;;5127275;27;19934;-84
2021/07/04 16:02:05;;;;;;;;;;;;;;;;;;5098886;28;20294;-87
2021/07/04 16:04:31;;;;;;;;;;;;;;;;;;5101656;28;19904;-86
2021/07/04 16:06:57;;;;;;;;;;;;;;;;;;5086440;28;20380;-86
2021/07/04 16:09:23;;;;;;;;;;;;;;;;;;5114264;28;19945;-87
2021/07/04 16:11:49;;;;;;;;;;;;;;;;;;5099795;28;19915;-86
2021/07/04 16:14:15;;;;;;;;;;;;;;;;;;5112147;28;19908;-84
2021/07/04 16:16:41;;;;;;;;;;;;;;;;;;5106025;28;20386;-81
2021/07/04 16:19:07;;;;;;;;;;;;;;;;;;5112565;28;19914;-83
2021/07/04 16:21:33;;;;;;;;;;;;;;;;;;5112597;28;20365;-84
2021/07/04 16:23:58;;;;;;;;;;;;;;;;;;5111419;28;19994;-81
2021/07/04 16:26:24;;;;;;;;;;;;;;;;;;5110408;28;19914;-81
2021/07/04 16:28:50;;;;;;;;;;;;;;;;;;5097921;28;20336;-84
2021/07/04 16:31:16;;;;;;;;;;;;;;;;;;5091922;28;19908;-83
2021/07/04 16:33:42;;;;;;;;;;;;;;;;;;5111318;28;20332;-83
2021/07/04 16:36:08;;;;;;;;;;;;;;;;;;5114902;28;20288;-83